Boyd, Illinois
Current Conditions -  °F | °C
As of 2:35 PM on Thursday 29 Jan 2015 (Local Time) from KENL Reporting Station
Overcast Overcast  
Wind Chill: 31°   Ceiling: 2300
Heat Index: 39°   Visibility: 10mi
Dew Point: 32°   Wind: 14mph
Humidity: 75%   Direction: 300°WNW
Pressure: 30.17"   Gusts: 21mph
Location:  38.4334°N, 88.9732°W
Report Text: KENL 292035Z AUTO 30012G18KT 10SM BKN023 OVC028 04/00 A3017 RMK AO2 T00391001
Loading
Personal Weather Stations






























Interactive Weather Map New forecast layout! Learn more

10-Day Weather Forecast

Advertisements
Track Severe Weather on mobile